Time;durP1;ratioP1;P1;durP2;ratioP2;P2;SDS_P1;SDS_P2;PMS_P1;PMS_P2;Temp;Humidity;BMP_temperature;BMP_pressure;BME280_temperature;BME280_humidity;BME280_pressure;Samples;Min_cycle;Max_cycle;Signal;HPM_P1;HPM_P2
2024/02/23 00:03:06;;;;;;;0.52;0.40;;;;;;;;;;12269539;24;20028;-73
2024/02/23 00:08:09;;;;;;;1.02;0.50;;;;;;;;;;12250507;24;20035;-73
2024/02/23 00:13:13;;;;;;;0.57;0.30;;;;;;;;;;12251253;24;20041;-73
2024/02/23 00:18:17;;;;;;;0.73;0.40;;;;;;;;;;12249049;24;20487;-73
2024/02/23 00:23:20;;;;;;;1.92;0.40;;;;;;;;;;12267786;24;20434;-73
2024/02/23 00:28:24;;;;;;;1.63;0.28;;;;;;;;;;12267218;24;20477;-73
2024/02/23 00:33:28;;;;;;;0.88;0.43;;;;;;;;;;12251592;24;20096;-73
2024/02/23 00:38:31;;;;;;;1.75;0.40;;;;;;;;;;12266636;24;20021;-73
2024/02/23 00:43:39;;;;;;;2.55;0.55;;;;;;;;;;12250585;24;20029;-73
2024/02/23 00:48:43;;;;;;;1.33;0.55;;;;;;;;;;12265842;24;20025;-73
2024/02/23 00:53:47;;;;;;;0.50;0.50;;;;;;;;;;12266319;24;20744;-73
2024/02/23 00:58:50;;;;;;;1.45;0.68;;;;;;;;;;12264675;24;20039;-73
2024/02/23 01:03:55;;;;;;;0.65;0.50;;;;;;;;;;12264829;24;20071;-73
2024/02/23 01:08:58;;;;;;;1.35;0.70;;;;;;;;;;12264083;24;20100;-73
2024/02/23 01:14:01;;;;;;;1.75;0.60;;;;;;;;;;12264490;24;20025;-73
2024/02/23 01:19:06;;;;;;;2.92;0.88;;;;;;;;;;12249796;24;20104;-73
2024/02/23 01:24:09;;;;;;;2.50;0.73;;;;;;;;;;12264152;24;20372;-73
2024/02/23 01:29:12;;;;;;;3.03;0.90;;;;;;;;;;12247765;24;20353;-72
2024/02/23 01:34:17;;;;;;;4.78;1.05;;;;;;;;;;12248380;24;20112;-72
2024/02/23 01:39:20;;;;;;;2.25;0.90;;;;;;;;;;12269289;24;20053;-73
2024/02/23 01:44:24;;;;;;;3.70;0.98;;;;;;;;;;12249783;24;20039;-73
2024/02/23 01:49:31;;;;;;;3.65;0.82;;;;;;;;;;12269773;24;20116;-73
2024/02/23 01:54:35;;;;;;;3.38;0.82;;;;;;;;;;12248978;24;20033;-73
2024/02/23 01:59:40;;;;;;;2.33;1.10;;;;;;;;;;12260853;24;20091;-73
2024/02/23 02:04:45;;;;;;;3.63;0.90;;;;;;;;;;12271567;24;20035;-73
2024/02/23 02:09:48;;;;;;;1.83;0.90;;;;;;;;;;12261005;24;20489;-73
2024/02/23 02:14:54;;;;;;;2.25;0.68;;;;;;;;;;12260391;24;20025;-73
2024/02/23 02:20:04;;;;;;;3.58;1.27;;;;;;;;;;12246460;24;20031;-73
2024/02/23 02:25:08;;;;;;;5.30;1.00;;;;;;;;;;12259783;24;20056;-72
2024/02/23 02:30:12;;;;;;;3.15;1.15;;;;;;;;;;12258311;24;20036;-73
2024/02/23 02:35:17;;;;;;;1.20;0.70;;;;;;;;;;12249236;24;20033;-73
2024/02/23 02:40:20;;;;;;;1.20;0.80;;;;;;;;;;12257893;24;20021;-73
2024/02/23 02:45:24;;;;;;;1.17;0.68;;;;;;;;;;12247533;24;20039;-73
2024/02/23 02:50:28;;;;;;;1.95;0.77;;;;;;;;;;12257807;24;20057;-73
2024/02/23 02:55:32;;;;;;;2.63;0.80;;;;;;;;;;12253753;24;20462;-73
2024/02/23 03:00:35;;;;;;;1.45;0.73;;;;;;;;;;12255975;24;20520;-73
2024/02/23 03:05:40;;;;;;;1.25;0.80;;;;;;;;;;12248481;24;20033;-73
2024/02/23 03:10:43;;;;;;;1.45;0.80;;;;;;;;;;12250468;24;20036;-73
2024/02/23 03:15:46;;;;;;;2.25;0.80;;;;;;;;;;12258557;24;20092;-73
2024/02/23 03:20:51;;;;;;;2.75;0.77;;;;;;;;;;12250196;24;20029;-72
2024/02/23 03:25:54;;;;;;;3.08;0.73;;;;;;;;;;12257857;24;20112;-73
2024/02/23 03:30:57;;;;;;;1.95;0.60;;;;;;;;;;12258101;24;20543;-73
2024/02/23 03:36:02;;;;;;;1.52;0.70;;;;;;;;;;12257900;24;20037;-73
2024/02/23 03:41:06;;;;;;;2.25;0.80;;;;;;;;;;12257335;24;20032;-73
2024/02/23 03:46:11;;;;;;;2.03;1.00;;;;;;;;;;12256659;24;20032;-73
2024/02/23 03:51:16;;;;;;;1.33;0.50;;;;;;;;;;12257094;24;20036;-73
2024/02/23 03:56:19;;;;;;;3.03;0.90;;;;;;;;;;12250014;24;20648;-73
2024/02/23 04:01:23;;;;;;;3.28;0.90;;;;;;;;;;12250779;24;20027;-73
2024/02/23 04:06:27;;;;;;;2.40;0.73;;;;;;;;;;12256023;24;20037;-73
2024/02/23 04:11:30;;;;;;;2.10;0.70;;;;;;;;;;12254103;24;20108;-73
2024/02/23 04:16:34;;;;;;;2.03;0.60;;;;;;;;;;12254924;24;20033;-73
2024/02/23 04:21:39;;;;;;;3.25;0.98;;;;;;;;;;12254685;24;20033;-73
2024/02/23 04:26:42;;;;;;;4.20;1.17;;;;;;;;;;12253747;24;20029;-73
2024/02/23 04:31:45;;;;;;;1.83;0.95;;;;;;;;;;12254053;24;20053;-73
2024/02/23 04:36:50;;;;;;;1.75;0.73;;;;;;;;;;12253318;24;20039;-73
2024/02/23 04:41:53;;;;;;;4.15;0.80;;;;;;;;;;12252603;24;20544;-73
2024/02/23 04:46:57;;;;;;;6.72;1.10;;;;;;;;;;12252686;24;20057;-73
2024/02/23 04:52:01;;;;;;;4.22;1.10;;;;;;;;;;12249661;24;20051;-73
2024/02/23 04:57:04;;;;;;;1.27;0.95;;;;;;;;;;12251143;24;20021;-73
2024/02/23 05:02:08;;;;;;;2.50;0.90;;;;;;;;;;12251787;24;20107;-73
2024/02/23 05:07:12;;;;;;;4.85;1.23;;;;;;;;;;12251093;24;20025;-73
2024/02/23 05:12:15;;;;;;;2.38;0.95;;;;;;;;;;12276108;23;20019;-74
2024/02/23 05:17:19;;;;;;;1.55;0.80;;;;;;;;;;12422928;23;20035;-74
2024/02/23 05:22:23;;;;;;;3.83;1.50;;;;;;;;;;12419081;23;20028;-74
2024/02/23 05:27:27;;;;;;;4.15;0.90;;;;;;;;;;12420382;23;20046;-74
2024/02/23 05:32:30;;;;;;;2.33;0.90;;;;;;;;;;12419322;23;20047;-74
2024/02/23 05:37:38;;;;;;;2.75;0.95;;;;;;;;;;12418945;23;20031;-74
2024/02/23 05:42:41;;;;;;;2.17;1.00;;;;;;;;;;12421063;23;20032;-74
2024/02/23 05:47:45;;;;;;;4.60;1.10;;;;;;;;;;12420458;23;20408;-74
2024/02/23 05:52:52;;;;;;;3.80;0.80;;;;;;;;;;12419594;23;20272;-73
2024/02/23 05:57:56;;;;;;;3.28;1.13;;;;;;;;;;12416136;23;20031;-74
2024/02/23 06:02:59;;;;;;;6.30;1.13;;;;;;;;;;12440741;23;20373;-74
2024/02/23 06:08:04;;;;;;;2.22;0.93;;;;;;;;;;12419463;23;20027;-74
2024/02/23 06:13:07;;;;;;;5.75;1.30;;;;;;;;;;12441804;23;20569;-73
2024/02/23 06:18:10;;;;;;;3.08;1.13;;;;;;;;;;12439810;23;20026;-74
2024/02/23 06:23:15;;;;;;;4.22;1.27;;;;;;;;;;12424721;23;20019;-74
2024/02/23 06:28:18;;;;;;;2.20;0.93;;;;;;;;;;12441850;23;20055;-74
2024/02/23 06:33:21;;;;;;;1.90;0.80;;;;;;;;;;12441951;23;20034;-74
2024/02/23 06:38:26;;;;;;;1.67;0.80;;;;;;;;;;12441443;23;20023;-74
2024/02/23 06:43:29;;;;;;;0.88;0.60;;;;;;;;;;12442883;23;20044;-74
2024/02/23 06:48:33;;;;;;;3.67;0.75;;;;;;;;;;12448368;23;20038;-73
2024/02/23 06:53:38;;;;;;;1.05;0.60;;;;;;;;;;12445291;23;20083;-74
2024/02/23 06:58:41;;;;;;;2.03;0.70;;;;;;;;;;12444588;23;20020;-74
2024/02/23 07:03:45;;;;;;;2.78;0.70;;;;;;;;;;12426707;23;20281;-74
2024/02/23 07:08:49;;;;;;;1.25;0.70;;;;;;;;;;12427923;23;20038;-74
2024/02/23 07:13:53;;;;;;;2.03;0.90;;;;;;;;;;12442826;23;20031;-74
2024/02/23 07:18:56;;;;;;;3.53;0.98;;;;;;;;;;12442223;23;20707;-74
2024/02/23 07:24:01;;;;;;;4.07;0.80;;;;;;;;;;12442456;23;20028;-74
2024/02/23 07:29:05;;;;;;;1.60;0.60;;;;;;;;;;12441565;23;20120;-74
2024/02/23 07:34:08;;;;;;;2.42;0.73;;;;;;;;;;12439358;23;20088;-74
2024/02/23 07:39:13;;;;;;;3.00;0.70;;;;;;;;;;12426126;23;20023;-74
2024/02/23 07:44:16;;;;;;;1.23;0.60;;;;;;;;;;12440605;23;20028;-74
2024/02/23 07:49:20;;;;;;;4.53;0.85;;;;;;;;;;12438970;23;20035;-74
2024/02/23 07:54:24;;;;;;;4.45;0.95;;;;;;;;;;12439091;23;20419;-74
2024/02/23 07:59:28;;;;;;;1.40;0.70;;;;;;;;;;12439459;23;20591;-74
2024/02/23 08:04:31;;;;;;;1.42;0.80;;;;;;;;;;12424963;23;20646;-74
2024/02/23 08:09:36;;;;;;;2.85;0.90;;;;;;;;;;12426586;23;20027;-74
2024/02/23 08:14:39;;;;;;;3.55;1.27;;;;;;;;;;12438068;23;20090;-74
2024/02/23 08:19:42;;;;;;;3.38;1.20;;;;;;;;;;12438657;23;20449;-74
2024/02/23 08:24:47;;;;;;;3.72;1.10;;;;;;;;;;12437472;23;20032;-75
2024/02/23 08:29:50;;;;;;;3.17;1.30;;;;;;;;;;12437376;23;20051;-74
2024/02/23 08:34:59;;;;;;;6.10;1.30;;;;;;;;;;12425537;23;20054;-74
2024/02/23 08:40:06;;;;;;;4.68;1.50;;;;;;;;;;12436657;23;20560;-74
2024/02/23 08:45:12;;;;;;;2.80;1.20;;;;;;;;;;12426098;23;20112;-74
2024/02/23 08:50:15;;;;;;;2.80;1.23;;;;;;;;;;12435733;23;20031;-74
2024/02/23 08:55:21;;;;;;;3.30;1.20;;;;;;;;;;12435395;23;20028;-74
2024/02/23 09:00:24;;;;;;;3.70;1.20;;;;;;;;;;12433815;23;20110;-74
2024/02/23 09:05:28;;;;;;;4.15;1.00;;;;;;;;;;12433995;23;20042;-74
2024/02/23 09:10:33;;;;;;;4.00;1.10;;;;;;;;;;12424605;23;20076;-74
2024/02/23 09:15:36;;;;;;;3.28;1.13;;;;;;;;;;12434090;23;20030;-74
2024/02/23 09:20:40;;;;;;;3.63;1.35;;;;;;;;;;12425180;23;20413;-74
2024/02/23 09:25:45;;;;;;;1.48;1.08;;;;;;;;;;12425186;23;20078;-74
2024/02/23 09:30:48;;;;;;;2.95;0.90;;;;;;;;;;12432843;23;20032;-74
2024/02/23 09:35:51;;;;;;;2.28;0.80;;;;;;;;;;12431943;23;20353;-74
2024/02/23 09:40:56;;;;;;;2.47;1.00;;;;;;;;;;12432058;23;20028;-74
2024/02/23 09:46:00;;;;;;;2.88;1.30;;;;;;;;;;12424880;23;20690;-74
2024/02/23 09:51:06;;;;;;;5.07;1.45;;;;;;;;;;12423742;23;20590;-74
2024/02/23 09:56:11;;;;;;;2.73;1.20;;;;;;;;;;12429180;23;20034;-74
2024/02/23 10:01:21;;;;;;;5.60;1.30;;;;;;;;;;12430060;23;20044;-74
2024/02/23 10:06:24;;;;;;;3.03;0.75;;;;;;;;;;12429937;23;20107;-74
2024/02/23 10:11:29;;;;;;;3.95;1.00;;;;;;;;;;12429451;23;20419;-74
2024/02/23 10:16:32;;;;;;;3.00;1.00;;;;;;;;;;12422807;23;20031;-74
2024/02/23 10:21:35;;;;;;;4.10;1.08;;;;;;;;;;12432560;23;20646;-74
2024/02/23 10:26:40;;;;;;;4.03;0.90;;;;;;;;;;12431669;23;20042;-74
2024/02/23 10:31:46;;;;;;;3.55;1.10;;;;;;;;;;12432487;23;20683;-74
2024/02/23 10:36:50;;;;;;;4.22;1.00;;;;;;;;;;12432609;23;20114;-74
2024/02/23 10:41:58;;;;;;;0.98;0.75;;;;;;;;;;12432551;23;20096;-74
2024/02/23 10:47:03;;;;;;;2.20;0.63;;;;;;;;;;12429854;23;20111;-74
2024/02/23 10:52:08;;;;;;;1.38;0.70;;;;;;;;;;12429337;23;20476;-74
2024/02/23 10:57:13;;;;;;;1.88;0.65;;;;;;;;;;12428645;23;20031;-74
2024/02/23 11:02:21;;;;;;;1.80;0.73;;;;;;;;;;12428055;23;20064;-74
2024/02/23 11:07:25;;;;;;;4.93;1.13;;;;;;;;;;12427106;23;20099;-74
2024/02/23 11:12:37;;;;;;;1.75;0.65;;;;;;;;;;12426006;23;20103;-73
2024/02/23 11:17:41;;;;;;;3.00;1.10;;;;;;;;;;12482137;23;20042;-73
2024/02/23 11:22:44;;;;;;;3.90;1.20;;;;;;;;;;12426388;23;20038;-73
2024/02/23 11:27:51;;;;;;;3.75;1.10;;;;;;;;;;12425852;23;20132;-73
2024/02/23 11:32:59;;;;;;;;;;;;;;;;;;12483858;23;20023;-74
2024/02/23 11:38:06;;;;;;;4.13;1.10;;;;;;;;;;12504684;23;20353;-74
2024/02/23 11:43:11;;;;;;;3.53;1.00;;;;;;;;;;12502258;23;20023;-74
2024/02/23 11:48:18;;;;;;;1.13;0.75;;;;;;;;;;12485376;23;20307;-73
2024/02/23 11:53:22;;;;;;;2.22;0.90;;;;;;;;;;12483984;23;20192;-73
2024/02/23 11:58:27;;;;;;;5.57;1.30;;;;;;;;;;12483878;23;20029;-73
2024/02/23 12:03:30;;;;;;;3.75;1.00;;;;;;;;;;12500131;23;20027;-73
2024/02/23 12:08:37;;;;;;;1.63;0.80;;;;;;;;;;12499516;23;20034;-73
2024/02/23 12:13:42;;;;;;;1.50;0.90;;;;;;;;;;12498887;23;20019;-73
2024/02/23 12:18:46;;;;;;;1.67;0.90;;;;;;;;;;12498552;23;20489;-73
2024/02/23 12:23:50;;;;;;;3.40;1.00;;;;;;;;;;12482921;23;20097;-73
2024/02/23 12:29:02;;;;;;;1.38;1.15;;;;;;;;;;12496188;23;20486;-73
2024/02/23 12:34:07;;;;;;;1.13;0.60;;;;;;;;;;12496973;23;20027;-73
2024/02/23 12:39:10;;;;;;;2.97;0.77;;;;;;;;;;12496196;23;20035;-73
2024/02/23 12:44:15;;;;;;;1.25;0.75;;;;;;;;;;12495582;23;20030;-73
2024/02/23 12:49:19;;;;;;;1.00;0.70;;;;;;;;;;12482131;23;20035;-73
2024/02/23 12:54:22;;;;;;;2.45;0.80;;;;;;;;;;12496489;23;20128;-73
2024/02/23 12:59:27;;;;;;;2.50;1.10;;;;;;;;;;12494742;23;20038;-73
2024/02/23 13:04:30;;;;;;;2.75;1.10;;;;;;;;;;12495579;23;20784;-73
2024/02/23 13:09:34;;;;;;;2.03;0.90;;;;;;;;;;12481918;23;20020;-73
2024/02/23 13:14:39;;;;;;;5.53;1.40;;;;;;;;;;12494434;23;20054;-73
2024/02/23 13:19:42;;;;;;;3.72;1.25;;;;;;;;;;12494252;23;20035;-73
2024/02/23 13:24:49;;;;;;;2.30;1.10;;;;;;;;;;12492970;23;20360;-73
2024/02/23 13:29:55;;;;;;;1.67;0.70;;;;;;;;;;12455665;23;20063;-73
2024/02/23 13:35:03;;;;;;;;;;;;;;;;;;12492491;23;20023;-73
2024/02/23 13:40:09;;;;;;;2.47;1.00;;;;;;;;;;12478831;23;19918;-73
2024/02/23 13:45:15;;;;;;;2.33;0.80;;;;;;;;;;12491218;23;20023;-73
2024/02/23 13:50:18;;;;;;;1.52;0.65;;;;;;;;;;12478338;23;20035;-73
2024/02/23 13:55:28;;;;;;;1.42;0.50;;;;;;;;;;12490396;23;20103;-73
2024/02/23 14:00:33;;;;;;;1.77;0.90;;;;;;;;;;12488780;23;20319;-73
2024/02/23 14:05:36;;;;;;;3.65;1.20;;;;;;;;;;12488825;23;20030;-73
2024/02/23 14:10:42;;;;;;;2.30;0.90;;;;;;;;;;12487747;23;20031;-73
2024/02/23 14:15:47;;;;;;;5.63;1.20;;;;;;;;;;12455199;23;20110;-73
2024/02/23 14:20:52;;;;;;;5.28;1.73;;;;;;;;;;12476166;23;20035;-73
2024/02/23 14:25:55;;;;;;;2.13;0.85;;;;;;;;;;12477704;23;20459;-73
2024/02/23 14:31:00;;;;;;;1.90;0.75;;;;;;;;;;12485143;23;20038;-73
2024/02/23 14:36:04;;;;;;;1.73;0.80;;;;;;;;;;12451540;23;20034;-73
2024/02/23 14:41:09;;;;;;;1.77;1.00;;;;;;;;;;12477862;23;20511;-73
2024/02/23 14:46:13;;;;;;;3.53;0.88;;;;;;;;;;12478819;23;20031;-73
2024/02/23 14:51:17;;;;;;;1.75;0.50;;;;;;;;;;12484668;23;20417;-73
2024/02/23 14:56:21;;;;;;;2.55;1.20;;;;;;;;;;12483401;23;20043;-73
2024/02/23 15:01:25;;;;;;;4.88;1.30;;;;;;;;;;12483696;23;20037;-73
2024/02/23 15:06:29;;;;;;;1.95;1.20;;;;;;;;;;12486205;23;20028;-73
2024/02/23 15:11:33;;;;;;;2.95;1.05;;;;;;;;;;12487705;23;20686;-73
2024/02/23 15:16:37;;;;;;;1.58;0.88;;;;;;;;;;12482443;23;20027;-73
2024/02/23 15:21:42;;;;;;;3.85;1.27;;;;;;;;;;12486467;23;20035;-73
2024/02/23 15:26:45;;;;;;;3.55;1.20;;;;;;;;;;12488254;23;20027;-72
2024/02/23 15:31:51;;;;;;;4.10;1.70;;;;;;;;;;12489253;23;20031;-73
2024/02/23 15:36:54;;;;;;;3.13;1.20;;;;;;;;;;12457757;23;20038;-73
2024/02/23 15:41:57;;;;;;;2.58;1.00;;;;;;;;;;12481868;23;20058;-73
2024/02/23 15:47:02;;;;;;;1.88;0.85;;;;;;;;;;12485527;23;20047;-74
2024/02/23 15:52:06;;;;;;;1.35;0.90;;;;;;;;;;12485152;23;20083;-73
2024/02/23 15:57:09;;;;;;;1.63;1.08;;;;;;;;;;12484210;23;20020;-73
2024/02/23 16:02:14;;;;;;;2.03;1.00;;;;;;;;;;12481866;23;20144;-73
2024/02/23 16:07:17;;;;;;;2.20;1.00;;;;;;;;;;12480217;23;20027;-73
2024/02/23 16:12:21;;;;;;;1.92;0.98;;;;;;;;;;12480844;23;20082;-73
2024/02/23 16:17:26;;;;;;;1.98;1.20;;;;;;;;;;12480586;23;20532;-73
2024/02/23 16:22:29;;;;;;;1.90;0.85;;;;;;;;;;12478578;23;20483;-73
2024/02/23 16:27:32;;;;;;;2.53;1.58;;;;;;;;;;12455298;23;20519;-73
2024/02/23 16:32:37;;;;;;;2.35;1.27;;;;;;;;;;12455664;23;20023;-73
2024/02/23 16:37:40;;;;;;;1.63;0.90;;;;;;;;;;12456698;23;20466;-73
2024/02/23 16:42:44;;;;;;;3.28;0.70;;;;;;;;;;12457766;23;20027;-73
2024/02/23 16:47:49;;;;;;;3.50;0.95;;;;;;;;;;12484077;23;20067;-73
2024/02/23 16:52:53;;;;;;;0.80;0.70;;;;;;;;;;12483489;23;20027;-74
2024/02/23 16:57:57;;;;;;;3.40;0.90;;;;;;;;;;12457528;23;20019;-73
2024/02/23 17:03:02;;;;;;;1.58;0.60;;;;;;;;;;12501943;23;20046;-73
2024/02/23 17:08:06;;;;;;;3.00;0.68;;;;;;;;;;12500960;23;20090;-73
2024/02/23 17:13:09;;;;;;;1.95;0.88;;;;;;;;;;12494373;23;20471;-73
2024/02/23 17:18:14;;;;;;;1.27;0.80;;;;;;;;;;12504975;23;20652;-73
2024/02/23 17:23:17;;;;;;;1.83;0.70;;;;;;;;;;12500012;23;20023;-73
2024/02/23 17:28:21;;;;;;;2.47;0.75;;;;;;;;;;12499504;23;20095;-73
2024/02/23 17:33:25;;;;;;;0.95;0.57;;;;;;;;;;12500555;23;20064;-73
2024/02/23 17:38:28;;;;;;;0.65;0.40;;;;;;;;;;12499071;23;20094;-73
2024/02/23 17:43:31;;;;;;;1.63;0.90;;;;;;;;;;12497944;23;20367;-73
2024/02/23 17:48:37;;;;;;;1.92;1.10;;;;;;;;;;12479684;23;20110;-73
2024/02/23 17:53:40;;;;;;;1.77;1.23;;;;;;;;;;12491363;23;20645;-73
2024/02/23 17:58:44;;;;;;;4.68;2.33;;;;;;;;;;12477082;23;20020;-73
2024/02/23 18:03:49;;;;;;;4.32;1.65;;;;;;;;;;12496914;23;20027;-73
2024/02/23 18:08:52;;;;;;;2.17;1.35;;;;;;;;;;12495646;23;20023;-73
2024/02/23 18:13:55;;;;;;;3.63;1.58;;;;;;;;;;12478484;23;20090;-73
2024/02/23 18:19:03;;;;;;;3.20;1.17;;;;;;;;;;12479147;23;20513;-73
2024/02/23 18:24:07;;;;;;;2.15;0.95;;;;;;;;;;12494583;23;20062;-73
2024/02/23 18:29:10;;;;;;;2.28;1.23;;;;;;;;;;12494197;23;20031;-73
2024/02/23 18:34:15;;;;;;;3.10;1.42;;;;;;;;;;12481045;23;20029;-72
2024/02/23 18:39:19;;;;;;;3.20;1.58;;;;;;;;;;12480405;23;20098;-73
2024/02/23 18:44:22;;;;;;;3.92;1.50;;;;;;;;;;12498046;23;20031;-73
2024/02/23 18:49:29;;;;;;;1.70;1.20;;;;;;;;;;12481938;23;20043;-73
2024/02/23 18:54:33;;;;;;;2.58;1.50;;;;;;;;;;12482037;23;20039;-73
2024/02/23 18:59:36;;;;;;;3.45;1.63;;;;;;;;;;12495921;23;20061;-73
2024/02/23 19:04:41;;;;;;;5.28;1.60;;;;;;;;;;12481842;23;20515;-73
2024/02/23 19:09:44;;;;;;;2.85;1.75;;;;;;;;;;12494933;23;20464;-73
2024/02/23 19:14:47;;;;;;;3.33;2.00;;;;;;;;;;12480803;23;20110;-73
2024/02/23 19:19:52;;;;;;;4.05;1.90;;;;;;;;;;12494668;23;20494;-73
2024/02/23 19:24:55;;;;;;;5.35;2.13;;;;;;;;;;12483505;23;20090;-73
2024/02/23 19:30:03;;;;;;;3.50;1.80;;;;;;;;;;12481717;23;20367;-73
2024/02/23 19:35:08;;;;;;;3.05;1.45;;;;;;;;;;12519502;23;20023;-72
2024/02/23 19:40:15;;;;;;;3.47;1.70;;;;;;;;;;12500079;23;20027;-73
2024/02/23 19:45:19;;;;;;;2.72;1.45;;;;;;;;;;12484594;23;20023;-73
2024/02/23 19:50:23;;;;;;;3.63;1.73;;;;;;;;;;12494351;23;20098;-73
2024/02/23 19:55:27;;;;;;;3.10;1.58;;;;;;;;;;12493261;23;20061;-73
2024/02/23 20:00:30;;;;;;;4.10;2.05;;;;;;;;;;12492354;23;20098;-73
2024/02/23 20:05:35;;;;;;;3.90;1.88;;;;;;;;;;12481392;23;20107;-73
2024/02/23 20:10:39;;;;;;;4.15;1.80;;;;;;;;;;12489054;23;20442;-73
2024/02/23 20:15:42;;;;;;;3.28;1.25;;;;;;;;;;12505199;23;20028;-73
2024/02/23 20:20:46;;;;;;;1.75;0.82;;;;;;;;;;12489446;23;20023;-73
2024/02/23 20:25:50;;;;;;;2.45;1.00;;;;;;;;;;12489386;23;20464;-73
2024/02/23 20:30:56;;;;;;;1.95;1.13;;;;;;;;;;12481731;23;20030;-73
2024/02/23 20:36:01;;;;;;;2.20;1.17;;;;;;;;;;12488732;23;20106;-73
2024/02/23 20:41:05;;;;;;;3.55;1.60;;;;;;;;;;12487786;23;20031;-73
2024/02/23 20:46:08;;;;;;;2.33;1.10;;;;;;;;;;12481977;23;20055;-73
2024/02/23 20:51:13;;;;;;;0.75;0.70;;;;;;;;;;12481995;23;20388;-73
2024/02/23 20:56:18;;;;;;;0.75;0.60;;;;;;;;;;12488889;23;20115;-73
2024/02/23 21:01:21;;;;;;;5.00;1.33;;;;;;;;;;12478954;23;20090;-73
2024/02/23 21:06:26;;;;;;;1.35;0.60;;;;;;;;;;12478989;23;20106;-73
2024/02/23 21:17:14;;;;;;;2.30;1.30;;;;;;;;;;12483125;23;20133;-73
2024/02/23 21:22:18;;;;;;;1.55;1.00;;;;;;;;;;12483420;23;20034;-73
2024/02/23 21:27:22;;;;;;;2.63;0.85;;;;;;;;;;12483508;23;20038;-73
2024/02/23 21:32:25;;;;;;;2.35;0.93;;;;;;;;;;12482844;23;20042;-73
2024/02/23 21:37:31;;;;;;;4.22;1.02;;;;;;;;;;12481198;23;20038;-73
2024/02/23 21:42:34;;;;;;;1.45;0.98;;;;;;;;;;12482525;23;20115;-73
2024/02/23 21:47:37;;;;;;;2.13;1.02;;;;;;;;;;12481143;23;20477;-73
2024/02/23 21:52:44;;;;;;;0.90;0.85;;;;;;;;;;12479387;23;20420;-73
2024/02/23 21:57:48;;;;;;;1.25;0.95;;;;;;;;;;12480350;23;20035;-73
2024/02/23 22:02:51;;;;;;;0.90;0.75;;;;;;;;;;12480511;23;20114;-73
2024/02/23 22:07:55;;;;;;;1.35;0.77;;;;;;;;;;12479935;23;20059;-73
2024/02/23 22:13:01;;;;;;;2.25;0.80;;;;;;;;;;12478780;23;20374;-72
2024/02/23 22:18:05;;;;;;;1.00;0.60;;;;;;;;;;12498825;23;20483;-73
2024/02/23 22:23:10;;;;;;;2.00;0.80;;;;;;;;;;12480659;23;20031;-73
2024/02/23 22:28:13;;;;;;;0.60;0.50;;;;;;;;;;12498313;23;20043;-73
2024/02/23 22:33:16;;;;;;;0.40;0.40;;;;;;;;;;12498934;23;20027;-73
2024/02/23 22:38:21;;;;;;;1.02;0.60;;;;;;;;;;12480087;23;20054;-73
2024/02/23 22:43:25;;;;;;;0.65;0.40;;;;;;;;;;12497356;23;20023;-73
2024/02/23 22:48:29;;;;;;;0.40;0.38;;;;;;;;;;12498063;23;20094;-73
2024/02/23 22:53:34;;;;;;;1.73;0.60;;;;;;;;;;12496942;23;20379;-73
2024/02/23 22:58:38;;;;;;;0.63;0.50;;;;;;;;;;12496428;23;20030;-73
2024/02/23 23:03:41;;;;;;;0.57;0.50;;;;;;;;;;12496264;23;20027;-73
2024/02/23 23:08:45;;;;;;;0.45;0.45;;;;;;;;;;12497012;23;20043;-73
2024/02/23 23:13:49;;;;;;;1.25;0.70;;;;;;;;;;12503846;23;20019;-73
2024/02/23 23:18:52;;;;;;;1.67;0.80;;;;;;;;;;12501084;23;20030;-73
2024/02/23 23:23:57;;;;;;;1.10;0.70;;;;;;;;;;12499835;23;20027;-73
2024/02/23 23:29:00;;;;;;;1.13;0.70;;;;;;;;;;12501259;23;20031;-73
2024/02/23 23:34:03;;;;;;;2.42;1.15;;;;;;;;;;12500185;23;20058;-73
2024/02/23 23:39:08;;;;;;;2.67;1.52;;;;;;;;;;12499397;23;20023;-73
2024/02/23 23:44:11;;;;;;;2.47;1.13;;;;;;;;;;12485354;23;20031;-73
2024/02/23 23:49:14;;;;;;;1.95;1.23;;;;;;;;;;12482250;23;20065;-73
2024/02/23 23:54:19;;;;;;;1.23;0.90;;;;;;;;;;12483891;23;20103;-73
2024/02/23 23:59:22;;;;;;;2.83;0.90;;;;;;;;;;12481208;23;20411;-73
